RBK weather

French Valley Airport
Murrieta/Temecula, California, United States

Public forecast

Using degrees Fahrenheit for public forecast. Weather courtesy of forecast.io.

METAR (pilot weather report)

Retrieved UTC (0 seconds ago):

TAF (pilot weather forecast)

Closest forecast is March ARB Airport, 19.5 nm (36.2 km) NNW. Retrieved 2019/08/20 20:07 UTC (6 hours ago):

TAF KRIV 202001Z 2020/2202 31009KT 9999 SKC QNH2989INS TEMPO 2021/2101 31012G20KT BECMG 2104/2105 VRB03KT 9999 SKC QNH2988INS BECMG 2118/2119 31009KT 9999 SKC QNH2978INS TEMPO 2121/2201 31012G20KT TX36/2022Z TN14/2113Z